createdAt,value
2022-07-31T00:00:21.950Z,15.80
2022-07-31T00:02:49.139Z,15.90
2022-07-31T00:05:16.248Z,15.90
2022-07-31T00:07:43.489Z,15.90
2022-07-31T00:10:11.109Z,15.90
2022-07-31T00:12:38.227Z,16.00
2022-07-31T00:15:10.209Z,16.00
2022-07-31T00:17:43.687Z,16.00
2022-07-31T00:20:14.529Z,16.00
2022-07-31T00:22:47.870Z,16.10
2022-07-31T00:25:16.804Z,16.00
2022-07-31T00:27:43.876Z,16.00
2022-07-31T00:30:15.732Z,16.00
2022-07-31T00:32:42.948Z,16.00
2022-07-31T00:35:12.405Z,16.00
2022-07-31T00:37:40.786Z,16.00
2022-07-31T00:40:11.666Z,16.00
2022-07-31T00:42:39.181Z,16.00
2022-07-31T00:45:07.586Z,16.00
2022-07-31T00:47:35.355Z,16.00
2022-07-31T00:50:04.595Z,16.00
2022-07-31T00:52:32.852Z,16.10
2022-07-31T00:54:59.894Z,16.10
2022-07-31T00:57:26.931Z,16.10
2022-07-31T00:59:54.125Z,16.20
2022-07-31T01:02:21.287Z,16.10
2022-07-31T01:04:48.516Z,16.10
2022-07-31T01:07:15.823Z,16.10
2022-07-31T01:09:42.935Z,16.20
2022-07-31T01:12:24.710Z,16.20
2022-07-31T01:14:58.070Z,16.20
2022-07-31T01:17:27.759Z,16.20
2022-07-31T01:19:55.071Z,16.30
2022-07-31T01:23:04.835Z,16.20
2022-07-31T01:25:52.783Z,16.20
2022-07-31T01:29:03.064Z,16.30
2022-07-31T01:31:37.255Z,16.20
2022-07-31T01:34:22.505Z,16.10
2022-07-31T01:37:00.903Z,16.10
2022-07-31T01:39:34.142Z,16.10
2022-07-31T01:42:06.989Z,16.10
2022-07-31T01:44:43.671Z,16.10
2022-07-31T01:47:15.715Z,16.00
2022-07-31T01:49:45.253Z,16.00
2022-07-31T01:52:14.505Z,15.90
2022-07-31T01:54:44.080Z,15.80
2022-07-31T01:57:13.166Z,15.70
2022-07-31T01:59:48.155Z,15.50
2022-07-31T02:02:16.924Z,15.40
2022-07-31T02:04:47.215Z,15.30
2022-07-31T02:07:16.262Z,15.10
2022-07-31T02:09:52.430Z,15.00
2022-07-31T02:12:32.982Z,14.90
2022-07-31T02:15:07.043Z,14.90
2022-07-31T02:17:35.690Z,14.80
2022-07-31T02:20:06.959Z,14.80
2022-07-31T02:22:35.128Z,14.70
2022-07-31T02:25:04.418Z,14.70
2022-07-31T02:27:58.250Z,14.80
2022-07-31T02:30:19.315Z,14.80
2022-07-31T02:32:48.308Z,14.90
2022-07-31T02:35:17.941Z,14.90
2022-07-31T02:37:47.492Z,14.90
2022-07-31T02:40:15.613Z,15.00
2022-07-31T02:42:43.602Z,15.00
2022-07-31T02:45:11.164Z,15.00
2022-07-31T02:47:39.200Z,15.00
2022-07-31T02:50:07.736Z,15.00
2022-07-31T02:52:35.059Z,14.90
2022-07-31T02:55:03.412Z,14.90
2022-07-31T02:57:30.553Z,14.90
2022-07-31T02:59:57.660Z,14.80
2022-07-31T03:02:24.907Z,14.80
2022-07-31T03:05:06.876Z,14.70
2022-07-31T03:07:34.149Z,14.60
2022-07-31T03:10:01.224Z,14.60
2022-07-31T03:12:28.335Z,14.50
2022-07-31T03:14:56.905Z,14.40
2022-07-31T03:17:24.989Z,14.30
2022-07-31T03:20:08.773Z,14.30
2022-07-31T03:22:36.135Z,14.30
2022-07-31T03:25:05.046Z,14.30
2022-07-31T03:27:32.135Z,14.20
2022-07-31T03:29:59.295Z,14.20
2022-07-31T03:32:26.328Z,14.20
2022-07-31T03:34:53.467Z,14.10
2022-07-31T03:37:20.521Z,14.10
2022-07-31T03:39:47.599Z,14.10
2022-07-31T03:42:18.988Z,14.10
2022-07-31T03:44:48.176Z,14.10
2022-07-31T03:47:16.638Z,14.10
2022-07-31T03:49:44.424Z,14.10
2022-07-31T03:52:12.390Z,14.10
2022-07-31T03:54:40.836Z,14.00
2022-07-31T03:57:08.831Z,14.00
2022-07-31T03:59:40.546Z,14.10
2022-07-31T04:02:18.643Z,14.20
2022-07-31T04:04:46.165Z,14.20
2022-07-31T04:07:13.309Z,14.20
2022-07-31T04:09:40.540Z,14.30
2022-07-31T04:12:07.953Z,14.40
2022-07-31T04:14:35.287Z,14.40
2022-07-31T04:17:02.476Z,14.50
2022-07-31T04:19:31.161Z,14.50
2022-07-31T04:21:59.836Z,14.60
2022-07-31T04:24:27.618Z,14.60
2022-07-31T04:26:58.695Z,14.70
2022-07-31T04:29:28.803Z,14.70
2022-07-31T04:31:56.463Z,14.80
2022-07-31T04:34:23.631Z,14.90
2022-07-31T04:36:50.793Z,14.90
2022-07-31T04:39:18.368Z,15.00
2022-07-31T04:41:45.444Z,15.10
2022-07-31T04:44:12.603Z,15.10
2022-07-31T04:46:39.683Z,15.20
2022-07-31T04:49:06.836Z,15.30
2022-07-31T04:51:33.943Z,15.30
2022-07-31T04:54:01.044Z,15.40
2022-07-31T04:56:33.725Z,15.50
2022-07-31T04:59:03.365Z,15.60
2022-07-31T05:01:30.753Z,15.70
2022-07-31T05:03:58.179Z,15.80
2022-07-31T05:06:38.466Z,15.90
2022-07-31T05:09:28.276Z,16.00
2022-07-31T05:11:59.209Z,16.00
2022-07-31T05:14:26.273Z,16.10
2022-07-31T05:16:55.843Z,16.20
2022-07-31T05:19:23.297Z,16.20
2022-07-31T05:21:54.030Z,16.30
2022-07-31T05:24:33.069Z,16.30
2022-07-31T05:27:03.095Z,16.40
2022-07-31T05:29:31.410Z,16.40
2022-07-31T05:32:00.411Z,16.40
2022-07-31T05:34:30.470Z,16.50
2022-07-31T05:37:01.964Z,16.50
2022-07-31T05:39:30.304Z,16.60
2022-07-31T05:41:57.626Z,16.60
2022-07-31T05:44:26.389Z,16.70
2022-07-31T05:49:19.927Z,16.70
2022-07-31T05:51:47.329Z,16.80
2022-07-31T05:54:14.850Z,16.80
2022-07-31T05:56:41.932Z,16.90
2022-07-31T05:59:09.925Z,17.00
2022-07-31T06:01:37.833Z,17.10
2022-07-31T06:04:05.652Z,17.10
2022-07-31T06:06:32.836Z,17.20
2022-07-31T06:09:04.567Z,17.30
2022-07-31T06:11:32.543Z,17.50
2022-07-31T06:13:59.803Z,17.60
2022-07-31T06:16:26.935Z,17.60
2022-07-31T06:18:54.203Z,17.60
2022-07-31T06:23:47.965Z,17.80
2022-07-31T06:26:15.258Z,17.90
2022-07-31T06:28:48.676Z,18.00
2022-07-31T06:31:19.463Z,18.00
2022-07-31T06:33:48.396Z,18.10
2022-07-31T06:36:17.329Z,18.20
2022-07-31T06:38:44.676Z,18.40
2022-07-31T06:41:11.982Z,18.50
2022-07-31T06:43:39.035Z,18.60
2022-07-31T06:46:06.148Z,18.70
2022-07-31T06:48:33.262Z,18.70
2022-07-31T06:51:27.925Z,18.80
2022-07-31T06:53:47.480Z,18.90
2022-07-31T06:56:14.556Z,19.00
2022-07-31T06:58:41.611Z,19.10
2022-07-31T07:01:08.842Z,19.20
2022-07-31T07:03:35.992Z,19.30
2022-07-31T07:06:03.668Z,19.30
2022-07-31T07:08:30.914Z,19.50
2022-07-31T07:10:57.996Z,19.60
2022-07-31T07:13:44.995Z,19.70
2022-07-31T07:16:14.756Z,19.90
2022-07-31T07:18:43.269Z,20.10
2022-07-31T07:21:11.386Z,20.30
2022-07-31T07:23:38.866Z,20.40
2022-07-31T07:26:06.419Z,20.60
2022-07-31T07:28:34.410Z,20.80
2022-07-31T07:31:02.738Z,21.00
2022-07-31T07:33:41.487Z,21.10
2022-07-31T07:36:22.909Z,21.20
2022-07-31T07:38:56.269Z,21.30
2022-07-31T07:41:27.075Z,21.40
2022-07-31T07:43:54.224Z,21.50
2022-07-31T07:46:25.200Z,21.60
2022-07-31T07:48:52.836Z,21.70
2022-07-31T07:51:20.938Z,21.70
2022-07-31T07:53:48.491Z,21.80
2022-07-31T07:56:16.137Z,21.90
2022-07-31T07:58:43.223Z,22.00
2022-07-31T08:01:10.431Z,22.10
2022-07-31T08:03:50.974Z,22.20
2022-07-31T08:06:21.462Z,22.30
2022-07-31T08:08:49.029Z,22.40
2022-07-31T08:11:17.301Z,22.50
2022-07-31T08:13:50.629Z,22.50
2022-07-31T08:16:24.375Z,22.60
2022-07-31T08:18:55.148Z,22.60
2022-07-31T08:21:22.271Z,22.60
2022-07-31T08:23:49.613Z,22.60
2022-07-31T08:26:18.649Z,22.70
2022-07-31T08:28:49.981Z,22.80
2022-07-31T08:31:19.707Z,22.90
2022-07-31T08:33:47.551Z,23.00
2022-07-31T08:36:14.666Z,23.20
2022-07-31T08:38:41.804Z,23.40
2022-07-31T08:41:08.920Z,23.50
2022-07-31T08:44:02.103Z,23.60
2022-07-31T08:46:24.667Z,23.80
2022-07-31T08:48:56.382Z,24.10
2022-07-31T08:51:24.466Z,24.40
2022-07-31T08:53:53.118Z,24.50
2022-07-31T08:56:24.078Z,24.70
2022-07-31T08:58:51.783Z,24.90
2022-07-31T09:01:19.006Z,25.10
2022-07-31T09:03:46.125Z,25.30
2022-07-31T09:06:13.233Z,25.40
2022-07-31T09:08:40.410Z,25.50
2022-07-31T09:11:10.665Z,25.50
2022-07-31T09:13:38.991Z,25.60
2022-07-31T09:16:06.890Z,25.70
2022-07-31T09:18:35.187Z,25.40
2022-07-31T09:21:04.848Z,25.00
2022-07-31T09:23:32.471Z,24.90
2022-07-31T09:26:06.177Z,25.10
2022-07-31T09:28:41.048Z,25.30
2022-07-31T09:31:10.400Z,25.50
2022-07-31T09:33:45.155Z,25.60
2022-07-31T09:36:14.164Z,25.60
2022-07-31T09:38:43.436Z,25.70
2022-07-31T09:41:56.651Z,25.50
2022-07-31T09:44:10.438Z,25.70
2022-07-31T09:46:46.902Z,26.00
2022-07-31T09:49:15.348Z,26.30
2022-07-31T09:51:46.129Z,26.50
2022-07-31T09:54:26.876Z,26.70
2022-07-31T09:56:54.323Z,26.80
2022-07-31T09:59:21.424Z,27.10
2022-07-31T10:01:49.903Z,27.00
2022-07-31T10:04:22.884Z,27.20
2022-07-31T10:06:52.324Z,27.20
2022-07-31T10:09:25.575Z,27.30
2022-07-31T10:11:57.587Z,27.20
2022-07-31T10:14:40.060Z,27.10
2022-07-31T10:17:08.188Z,26.90
2022-07-31T10:19:39.136Z,26.90
2022-07-31T10:22:06.891Z,26.90
2022-07-31T10:24:38.607Z,26.90
2022-07-31T10:27:09.077Z,26.90
2022-07-31T10:29:39.487Z,27.00
2022-07-31T10:32:08.787Z,27.20
2022-07-31T10:34:36.613Z,27.20
2022-07-31T10:37:20.706Z,27.30
2022-07-31T10:40:12.362Z,27.50
2022-07-31T10:42:55.948Z,27.60
2022-07-31T10:45:23.894Z,27.80
2022-07-31T10:48:00.997Z,28.00
2022-07-31T10:50:31.772Z,28.20
2022-07-31T10:53:10.636Z,28.30
2022-07-31T10:55:37.982Z,28.40
2022-07-31T10:58:17.438Z,28.40
2022-07-31T11:00:45.574Z,28.40
2022-07-31T11:03:21.689Z,28.40
2022-07-31T11:06:03.165Z,28.40
2022-07-31T11:08:45.356Z,28.40
2022-07-31T11:11:13.795Z,27.90
2022-07-31T11:13:56.693Z,28.10
2022-07-31T11:16:24.586Z,28.30
2022-07-31T11:19:01.127Z,28.50
2022-07-31T11:21:39.553Z,28.60
2022-07-31T11:24:22.292Z,28.60
2022-07-31T11:26:56.216Z,28.50
2022-07-31T11:30:01.390Z,28.50
2022-07-31T11:32:25.209Z,28.50
2022-07-31T11:34:57.588Z,28.60
2022-07-31T11:37:56.375Z,28.60
2022-07-31T11:40:22.156Z,28.60
2022-07-31T11:43:10.324Z,28.40
2022-07-31T11:45:53.299Z,28.40
2022-07-31T11:48:27.204Z,28.30
2022-07-31T11:50:57.151Z,28.30
2022-07-31T11:53:24.347Z,28.50
2022-07-31T11:55:55.118Z,28.80
2022-07-31T11:58:24.023Z,29.40
2022-07-31T12:00:53.977Z,30.30
2022-07-31T12:03:24.909Z,31.70
2022-07-31T12:05:53.364Z,32.50
2022-07-31T12:08:22.734Z,33.30
2022-07-31T12:11:00.043Z,33.40
2022-07-31T12:13:28.526Z,33.50
2022-07-31T12:16:04.659Z,33.50
2022-07-31T12:18:49.646Z,33.60
2022-07-31T12:21:18.305Z,33.50
2022-07-31T12:23:51.603Z,33.00
2022-07-31T12:26:24.887Z,32.30
2022-07-31T12:29:07.611Z,30.60
2022-07-31T12:31:52.983Z,30.70
2022-07-31T12:34:36.000Z,31.30
2022-07-31T12:37:21.900Z,31.40
2022-07-31T12:39:59.942Z,31.30
2022-07-31T12:42:41.843Z,30.80
2022-07-31T12:45:19.848Z,30.60
2022-07-31T12:47:51.642Z,30.20
2022-07-31T12:50:23.972Z,29.80
2022-07-31T12:52:51.408Z,29.60
2022-07-31T12:55:18.922Z,29.90
2022-07-31T12:57:51.095Z,30.20
2022-07-31T13:00:24.102Z,30.60
2022-07-31T13:02:57.209Z,31.80
2022-07-31T13:05:25.770Z,33.10
2022-07-31T13:07:54.013Z,34.00
2022-07-31T13:10:24.771Z,34.70
2022-07-31T13:12:52.934Z,35.30
2022-07-31T13:15:31.382Z,35.60
2022-07-31T13:18:04.951Z,36.00
2022-07-31T13:20:32.669Z,36.20
2022-07-31T13:23:00.011Z,35.80
2022-07-31T13:25:32.324Z,33.80
2022-07-31T13:27:59.976Z,32.80
2022-07-31T13:30:28.400Z,33.30
2022-07-31T13:32:55.616Z,34.10
2022-07-31T13:35:27.457Z,34.60
2022-07-31T13:37:55.791Z,34.70
2022-07-31T13:40:42.943Z,34.80
2022-07-31T13:43:10.090Z,35.20
2022-07-31T13:45:37.423Z,35.70
2022-07-31T13:48:09.314Z,35.80
2022-07-31T13:50:41.459Z,35.70
2022-07-31T13:53:10.226Z,34.60
2022-07-31T13:55:37.700Z,34.60
2022-07-31T13:58:05.130Z,34.50
2022-07-31T14:00:32.694Z,34.40
2022-07-31T14:03:00.020Z,33.90
2022-07-31T14:05:27.813Z,32.90
2022-07-31T14:07:56.276Z,32.20
2022-07-31T14:10:43.986Z,31.60
2022-07-31T14:13:17.131Z,32.00
2022-07-31T14:15:46.480Z,32.00
2022-07-31T14:18:13.591Z,31.90
2022-07-31T14:20:40.683Z,31.20
2022-07-31T14:23:10.711Z,31.00
2022-07-31T14:25:39.186Z,30.80
2022-07-31T14:28:08.696Z,31.00
2022-07-31T14:30:37.389Z,31.00
2022-07-31T14:33:05.395Z,31.20
2022-07-31T14:35:33.713Z,31.40
2022-07-31T14:38:04.169Z,31.70
2022-07-31T14:40:31.741Z,31.90
2022-07-31T14:42:59.517Z,31.70
2022-07-31T14:45:26.744Z,31.10
2022-07-31T14:47:55.256Z,31.10
2022-07-31T14:50:23.447Z,31.10
2022-07-31T14:52:51.028Z,30.70
2022-07-31T14:55:19.660Z,30.40
2022-07-31T14:57:46.805Z,30.30
2022-07-31T15:00:15.103Z,30.40
2022-07-31T15:02:44.163Z,30.70
2022-07-31T15:06:40.956Z,30.70
2022-07-31T15:08:02.528Z,30.50
2022-07-31T15:10:31.144Z,30.60
2022-07-31T15:12:58.295Z,30.20
2022-07-31T15:15:25.420Z,30.00
2022-07-31T15:17:56.068Z,30.10
2022-07-31T15:20:30.056Z,30.20
2022-07-31T15:23:01.081Z,30.40
2022-07-31T15:25:28.318Z,30.80
2022-07-31T15:27:55.431Z,30.90
2022-07-31T15:30:23.256Z,30.80
2022-07-31T15:32:53.228Z,30.90
2022-07-31T15:35:20.625Z,30.70
2022-07-31T15:37:49.613Z,30.90
2022-07-31T15:40:17.542Z,31.20
2022-07-31T15:42:46.910Z,31.40
2022-07-31T15:45:18.066Z,30.90
2022-07-31T15:47:46.135Z,30.40
2022-07-31T15:50:16.761Z,30.20
2022-07-31T15:52:44.063Z,30.00
2022-07-31T15:55:11.739Z,29.90
2022-07-31T15:57:39.503Z,29.80
2022-07-31T16:00:14.393Z,29.70
2022-07-31T16:02:42.844Z,29.70
2022-07-31T16:05:36.076Z,29.80
2022-07-31T16:08:32.082Z,29.80
2022-07-31T16:10:46.962Z,30.30
2022-07-31T16:13:15.328Z,30.90
2022-07-31T16:15:42.455Z,31.30
2022-07-31T16:18:09.522Z,31.30
2022-07-31T16:20:45.530Z,31.30
2022-07-31T16:23:12.744Z,31.20
2022-07-31T16:25:39.835Z,31.00
2022-07-31T16:28:06.956Z,30.80
2022-07-31T16:30:34.107Z,30.70
2022-07-31T16:33:01.218Z,30.80
2022-07-31T16:35:28.416Z,30.80
2022-07-31T16:37:55.780Z,31.00
2022-07-31T16:40:30.579Z,31.20
2022-07-31T16:43:51.067Z,31.20
2022-07-31T16:45:53.571Z,31.10
2022-07-31T16:48:20.968Z,30.70
2022-07-31T16:50:54.142Z,30.50
2022-07-31T16:54:10.801Z,30.40
2022-07-31T16:56:15.499Z,30.70
2022-07-31T16:58:44.255Z,30.90
2022-07-31T17:01:57.040Z,31.10
2022-07-31T17:04:03.542Z,31.20
2022-07-31T17:06:34.399Z,31.40
2022-07-31T17:09:15.954Z,31.50
2022-07-31T17:11:55.564Z,31.50
2022-07-31T17:14:27.101Z,31.90
2022-07-31T17:16:55.882Z,32.00
2022-07-31T17:19:41.051Z,31.90
2022-07-31T17:22:17.546Z,32.00
2022-07-31T17:24:51.938Z,31.30
2022-07-31T17:27:21.609Z,30.60
2022-07-31T17:29:49.279Z,30.20
2022-07-31T17:32:17.672Z,30.20
2022-07-31T17:34:46.477Z,30.10
2022-07-31T17:37:13.971Z,30.20
2022-07-31T17:39:41.130Z,30.60
2022-07-31T17:42:09.298Z,31.00
2022-07-31T17:44:37.822Z,30.90
2022-07-31T17:47:08.391Z,30.30
2022-07-31T17:49:36.467Z,29.90
2022-07-31T17:52:04.373Z,29.60
2022-07-31T17:54:32.685Z,29.30
2022-07-31T17:57:00.406Z,29.10
2022-07-31T17:59:28.315Z,28.90
2022-07-31T18:02:03.790Z,28.80
2022-07-31T18:04:34.282Z,28.70
2022-07-31T18:07:04.525Z,28.60
2022-07-31T18:09:35.255Z,28.50
2022-07-31T18:12:03.473Z,28.30
2022-07-31T18:14:30.976Z,28.30
2022-07-31T18:16:58.038Z,28.20
2022-07-31T18:19:25.168Z,28.10
2022-07-31T18:21:52.842Z,28.00
2022-07-31T18:24:21.372Z,27.80
2022-07-31T18:26:49.451Z,27.60
2022-07-31T18:29:17.948Z,27.50
2022-07-31T18:31:46.547Z,27.20
2022-07-31T18:34:15.643Z,26.90
2022-07-31T18:36:43.019Z,26.70
2022-07-31T18:39:10.389Z,26.30
2022-07-31T18:41:38.350Z,26.00
2022-07-31T18:44:06.703Z,25.70
2022-07-31T18:46:33.997Z,25.50
2022-07-31T18:49:01.345Z,25.30
2022-07-31T18:51:29.985Z,25.20
2022-07-31T18:53:58.205Z,25.00
2022-07-31T18:56:26.352Z,24.80
2022-07-31T18:58:54.863Z,24.70
2022-07-31T19:01:23.789Z,24.60
2022-07-31T19:03:51.302Z,24.50
2022-07-31T19:06:19.514Z,24.50
2022-07-31T19:08:49.433Z,24.40
2022-07-31T19:11:16.734Z,24.30
2022-07-31T19:13:44.031Z,24.20
2022-07-31T19:16:11.358Z,24.20
2022-07-31T19:18:40.329Z,24.20
2022-07-31T19:21:23.619Z,24.20
2022-07-31T19:23:56.137Z,24.10
2022-07-31T19:26:24.681Z,24.10
2022-07-31T19:28:51.763Z,24.00
2022-07-31T19:31:18.899Z,23.90
2022-07-31T19:33:46.171Z,23.80
2022-07-31T19:36:15.351Z,23.70
2022-07-31T19:38:44.490Z,23.60
2022-07-31T19:41:13.822Z,23.50
2022-07-31T19:43:41.039Z,23.30
2022-07-31T19:46:12.300Z,23.30
2022-07-31T19:48:46.745Z,23.20
2022-07-31T19:51:15.913Z,23.20
2022-07-31T19:53:44.661Z,23.20
2022-07-31T19:56:19.722Z,23.20
2022-07-31T19:58:48.200Z,23.30
2022-07-31T20:01:15.479Z,23.40
2022-07-31T20:03:42.859Z,23.30
2022-07-31T20:06:12.321Z,23.30
2022-07-31T20:08:39.471Z,23.20
2022-07-31T20:11:06.936Z,23.10
2022-07-31T20:13:37.810Z,23.00
2022-07-31T20:16:05.644Z,22.90
2022-07-31T20:18:32.942Z,22.80
2022-07-31T20:21:10.085Z,22.60
2022-07-31T20:23:41.775Z,22.50
2022-07-31T20:26:11.977Z,22.40
2022-07-31T20:28:40.510Z,22.20
2022-07-31T20:31:16.302Z,22.20
2022-07-31T20:33:57.874Z,22.10
2022-07-31T20:36:26.983Z,22.00
2022-07-31T20:38:54.920Z,21.80
2022-07-31T20:41:21.997Z,21.70
2022-07-31T20:43:52.373Z,21.70
2022-07-31T20:46:19.584Z,21.60
2022-07-31T20:48:47.220Z,21.60
2022-07-31T20:51:20.497Z,21.50
2022-07-31T20:53:48.134Z,21.50
2022-07-31T20:56:16.942Z,21.40
2022-07-31T20:58:49.463Z,21.40
2022-07-31T21:01:20.229Z,21.40
2022-07-31T21:03:48.745Z,21.20
2022-07-31T21:06:16.600Z,21.10
2022-07-31T21:08:43.691Z,21.10
2022-07-31T21:11:10.854Z,21.00
2022-07-31T21:13:38.268Z,20.90
2022-07-31T21:16:06.772Z,20.80
2022-07-31T21:18:35.788Z,20.70
2022-07-31T21:21:04.550Z,20.60
2022-07-31T21:23:31.787Z,20.50
2022-07-31T21:25:59.979Z,20.50
2022-07-31T21:28:28.171Z,20.40
2022-07-31T21:30:58.767Z,20.30
2022-07-31T21:33:29.317Z,20.30
2022-07-31T21:35:56.638Z,20.20
2022-07-31T21:38:24.504Z,20.10
2022-07-31T21:40:54.001Z,20.10
2022-07-31T21:43:22.147Z,20.10
2022-07-31T21:45:57.348Z,20.00
2022-07-31T21:48:29.697Z,20.00
2022-07-31T21:50:57.348Z,20.00
2022-07-31T21:53:24.845Z,20.00
2022-07-31T21:55:52.570Z,20.00
2022-07-31T21:58:19.742Z,20.00
2022-07-31T22:00:47.053Z,20.10
2022-07-31T22:03:14.362Z,20.10
2022-07-31T22:06:00.368Z,20.00
2022-07-31T22:08:27.554Z,20.00
2022-07-31T22:10:54.885Z,20.00
2022-07-31T22:13:22.146Z,19.90
2022-07-31T22:15:58.080Z,19.80
2022-07-31T22:18:33.520Z,19.80
2022-07-31T22:21:03.573Z,19.70
2022-07-31T22:23:31.327Z,19.70
2022-07-31T22:25:58.719Z,19.70
2022-07-31T22:28:27.492Z,19.70
2022-07-31T22:30:56.281Z,19.60
2022-07-31T22:33:24.542Z,19.60
2022-07-31T22:35:59.889Z,19.50
2022-07-31T22:38:30.174Z,19.50
2022-07-31T22:40:59.107Z,19.40
2022-07-31T22:44:05.618Z,19.30
2022-07-31T22:46:14.383Z,19.30
2022-07-31T22:48:41.791Z,19.30
2022-07-31T22:51:10.813Z,19.20
2022-07-31T22:53:44.297Z,19.10
2022-07-31T22:56:11.604Z,19.10
2022-07-31T22:58:38.808Z,19.00
2022-07-31T23:01:06.026Z,19.00
2022-07-31T23:03:33.124Z,18.90
2022-07-31T23:06:13.071Z,18.90
2022-07-31T23:08:54.857Z,18.90
2022-07-31T23:11:23.205Z,18.90
2022-07-31T23:13:51.359Z,18.90
2022-07-31T23:16:20.414Z,18.90
2022-07-31T23:18:48.134Z,18.80
2022-07-31T23:21:15.395Z,18.80
2022-07-31T23:23:48.014Z,18.80
2022-07-31T23:26:23.399Z,18.70
2022-07-31T23:28:51.982Z,18.70
2022-07-31T23:31:19.286Z,18.50
2022-07-31T23:33:47.974Z,18.50
2022-07-31T23:36:16.255Z,18.40
2022-07-31T23:38:44.250Z,18.30
2022-07-31T23:41:11.676Z,18.20
2022-07-31T23:43:38.946Z,18.30
2022-07-31T23:46:06.237Z,18.20
2022-07-31T23:48:35.540Z,18.20
2022-07-31T23:51:03.544Z,18.20
2022-07-31T23:53:30.631Z,18.20
2022-07-31T23:55:57.759Z,18.20
2022-07-31T23:58:24.840Z,18.20
